sensor_id;sensor_type;location;lat;lon;timestamp;P1;durP1;ratioP1;P2;durP2;ratioP2
33268;SDS011;19640;50.944;5.260;2022-10-16T00:01:14;2.60;;;0.88;;
33268;SDS011;19640;50.944;5.260;2022-10-16T00:03:42;1.45;;;0.63;;
33268;SDS011;19640;50.944;5.260;2022-10-16T00:06:09;2.40;;;1.20;;
33268;SDS011;19640;50.944;5.260;2022-10-16T00:08:36;1.20;;;0.73;;
33268;SDS011;19640;50.944;5.260;2022-10-16T00:11:04;11.65;;;0.88;;
33268;SDS011;19640;50.944;5.260;2022-10-16T00:13:31;3.35;;;0.80;;
33268;SDS011;19640;50.944;5.260;2022-10-16T00:15:58;1.55;;;0.57;;
33268;SDS011;19640;50.944;5.260;2022-10-16T00:18:25;1.13;;;0.60;;
33268;SDS011;19640;50.944;5.260;2022-10-16T00:20:51;3.72;;;0.90;;
33268;SDS011;19640;50.944;5.260;2022-10-16T00:23:17;1.17;;;0.55;;
33268;SDS011;19640;50.944;5.260;2022-10-16T00:25:43;3.70;;;0.60;;
33268;SDS011;19640;50.944;5.260;2022-10-16T00:28:09;1.67;;;0.70;;
33268;SDS011;19640;50.944;5.260;2022-10-16T00:30:37;0.75;;;0.70;;
33268;SDS011;19640;50.944;5.260;2022-10-16T00:33:03;0.40;;;0.40;;
33268;SDS011;19640;50.944;5.260;2022-10-16T00:35:30;1.30;;;0.70;;
33268;SDS011;19640;50.944;5.260;2022-10-16T00:37:56;0.85;;;0.40;;
33268;SDS011;19640;50.944;5.260;2022-10-16T00:40:21;0.65;;;0.55;;
33268;SDS011;19640;50.944;5.260;2022-10-16T00:42:47;1.13;;;0.50;;
33268;SDS011;19640;50.944;5.260;2022-10-16T00:45:13;0.55;;;0.50;;
33268;SDS011;19640;50.944;5.260;2022-10-16T00:47:39;0.80;;;0.63;;
33268;SDS011;19640;50.944;5.260;2022-10-16T00:50:17;2.65;;;0.70;;
33268;SDS011;19640;50.944;5.260;2022-10-16T00:52:48;2.70;;;0.60;;
33268;SDS011;19640;50.944;5.260;2022-10-16T00:55:16;0.85;;;0.40;;
33268;SDS011;19640;50.944;5.260;2022-10-16T00:57:42;1.88;;;0.63;;
33268;SDS011;19640;50.944;5.260;2022-10-16T01:00:10;1.90;;;0.50;;
33268;SDS011;19640;50.944;5.260;2022-10-16T01:02:37;5.32;;;1.17;;
33268;SDS011;19640;50.944;5.260;2022-10-16T01:05:03;0.60;;;0.50;;
33268;SDS011;19640;50.944;5.260;2022-10-16T01:12:33;1.77;;;0.80;;
33268;SDS011;19640;50.944;5.260;2022-10-16T01:20:20;2.40;;;0.60;;
33268;SDS011;19640;50.944;5.260;2022-10-16T01:28:49;0.63;;;0.60;;
33268;SDS011;19640;50.944;5.260;2022-10-16T01:31:22;3.08;;;0.70;;
33268;SDS011;19640;50.944;5.260;2022-10-16T01:33:53;2.05;;;0.73;;
33268;SDS011;19640;50.944;5.260;2022-10-16T01:36:26;1.90;;;0.80;;
33268;SDS011;19640;50.944;5.260;2022-10-16T01:39:00;2.42;;;0.55;;
33268;SDS011;19640;50.944;5.260;2022-10-16T01:41:30;1.52;;;0.70;;
33268;SDS011;19640;50.944;5.260;2022-10-16T01:44:07;2.40;;;0.60;;
33268;SDS011;19640;50.944;5.260;2022-10-16T01:46:41;0.80;;;0.57;;
33268;SDS011;19640;50.944;5.260;2022-10-16T01:49:10;0.57;;;0.57;;
33268;SDS011;19640;50.944;5.260;2022-10-16T01:51:38;0.60;;;0.60;;
33268;SDS011;19640;50.944;5.260;2022-10-16T01:54:05;2.10;;;0.70;;
33268;SDS011;19640;50.944;5.260;2022-10-16T01:56:33;1.13;;;0.60;;
33268;SDS011;19640;50.944;5.260;2022-10-16T01:59:09;1.35;;;0.77;;
33268;SDS011;19640;50.944;5.260;2022-10-16T02:01:39;1.23;;;0.70;;
33268;SDS011;19640;50.944;5.260;2022-10-16T02:04:18;0.73;;;0.55;;
33268;SDS011;19640;50.944;5.260;2022-10-16T02:06:52;1.05;;;0.70;;
33268;SDS011;19640;50.944;5.260;2022-10-16T02:09:18;0.85;;;0.55;;
33268;SDS011;19640;50.944;5.260;2022-10-16T02:11:43;2.92;;;0.90;;
33268;SDS011;19640;50.944;5.260;2022-10-16T02:14:10;1.92;;;0.70;;
33268;SDS011;19640;50.944;5.260;2022-10-16T02:16:39;1.63;;;0.70;;
33268;SDS011;19640;50.944;5.260;2022-10-16T02:19:08;1.38;;;0.60;;
33268;SDS011;19640;50.944;5.260;2022-10-16T02:21:43;1.13;;;0.80;;
33268;SDS011;19640;50.944;5.260;2022-10-16T02:30:01;0.90;;;0.68;;
33268;SDS011;19640;50.944;5.260;2022-10-16T02:32:38;2.35;;;0.70;;
33268;SDS011;19640;50.944;5.260;2022-10-16T02:35:07;1.45;;;0.70;;
33268;SDS011;19640;50.944;5.260;2022-10-16T02:37:33;3.65;;;0.77;;
33268;SDS011;19640;50.944;5.260;2022-10-16T02:40:00;1.73;;;0.70;;
33268;SDS011;19640;50.944;5.260;2022-10-16T02:42:37;1.23;;;0.82;;
33268;SDS011;19640;50.944;5.260;2022-10-16T02:45:05;2.08;;;0.68;;
33268;SDS011;19640;50.944;5.260;2022-10-16T02:47:32;1.83;;;0.60;;
33268;SDS011;19640;50.944;5.260;2022-10-16T02:49:57;0.98;;;0.60;;
33268;SDS011;19640;50.944;5.260;2022-10-16T02:52:23;0.75;;;0.60;;
33268;SDS011;19640;50.944;5.260;2022-10-16T02:54:48;0.57;;;0.50;;
33268;SDS011;19640;50.944;5.260;2022-10-16T02:57:14;0.57;;;0.57;;
33268;SDS011;19640;50.944;5.260;2022-10-16T02:59:40;5.20;;;0.68;;
33268;SDS011;19640;50.944;5.260;2022-10-16T03:02:06;1.83;;;1.38;;
33268;SDS011;19640;50.944;5.260;2022-10-16T03:04:31;1.45;;;0.70;;
33268;SDS011;19640;50.944;5.260;2022-10-16T03:06:57;1.05;;;0.70;;
33268;SDS011;19640;50.944;5.260;2022-10-16T03:09:22;1.52;;;0.60;;
33268;SDS011;19640;50.944;5.260;2022-10-16T03:11:48;1.48;;;0.70;;
33268;SDS011;19640;50.944;5.260;2022-10-16T03:14:14;2.83;;;0.60;;
33268;SDS011;19640;50.944;5.260;2022-10-16T03:16:39;4.45;;;0.77;;
33268;SDS011;19640;50.944;5.260;2022-10-16T03:19:05;2.05;;;0.95;;
33268;SDS011;19640;50.944;5.260;2022-10-16T03:21:30;3.13;;;0.80;;
33268;SDS011;19640;50.944;5.260;2022-10-16T03:23:56;1.08;;;0.63;;
33268;SDS011;19640;50.944;5.260;2022-10-16T03:26:22;2.40;;;0.70;;
33268;SDS011;19640;50.944;5.260;2022-10-16T03:28:47;1.85;;;0.80;;
33268;SDS011;19640;50.944;5.260;2022-10-16T03:31:13;1.00;;;0.60;;
33268;SDS011;19640;50.944;5.260;2022-10-16T03:33:38;5.15;;;0.70;;
33268;SDS011;19640;50.944;5.260;2022-10-16T03:36:04;1.45;;;0.88;;
33268;SDS011;19640;50.944;5.260;2022-10-16T03:38:30;2.42;;;0.70;;
33268;SDS011;19640;50.944;5.260;2022-10-16T03:40:55;3.20;;;0.95;;
33268;SDS011;19640;50.944;5.260;2022-10-16T03:43:21;1.65;;;0.68;;
33268;SDS011;19640;50.944;5.260;2022-10-16T03:45:46;2.13;;;1.02;;
33268;SDS011;19640;50.944;5.260;2022-10-16T03:48:12;1.02;;;0.88;;
33268;SDS011;19640;50.944;5.260;2022-10-16T03:50:38;2.50;;;0.88;;
33268;SDS011;19640;50.944;5.260;2022-10-16T03:53:03;1.17;;;1.00;;
33268;SDS011;19640;50.944;5.260;2022-10-16T03:55:29;2.58;;;0.75;;
33268;SDS011;19640;50.944;5.260;2022-10-16T03:57:54;1.60;;;1.00;;
33268;SDS011;19640;50.944;5.260;2022-10-16T04:00:20;1.13;;;0.70;;
33268;SDS011;19640;50.944;5.260;2022-10-16T04:02:46;0.80;;;0.80;;
33268;SDS011;19640;50.944;5.260;2022-10-16T04:05:11;1.15;;;0.90;;
33268;SDS011;19640;50.944;5.260;2022-10-16T04:07:37;3.47;;;0.80;;
33268;SDS011;19640;50.944;5.260;2022-10-16T04:10:03;2.47;;;0.98;;
33268;SDS011;19640;50.944;5.260;2022-10-16T04:12:29;3.15;;;1.10;;
33268;SDS011;19640;50.944;5.260;2022-10-16T04:14:55;1.10;;;1.00;;
33268;SDS011;19640;50.944;5.260;2022-10-16T04:17:20;2.47;;;1.00;;
33268;SDS011;19640;50.944;5.260;2022-10-16T04:19:46;1.48;;;1.17;;
33268;SDS011;19640;50.944;5.260;2022-10-16T04:22:12;2.13;;;0.90;;
33268;SDS011;19640;50.944;5.260;2022-10-16T04:24:38;5.18;;;1.02;;
33268;SDS011;19640;50.944;5.260;2022-10-16T04:27:04;2.42;;;1.20;;
33268;SDS011;19640;50.944;5.260;2022-10-16T04:29:29;1.15;;;0.75;;
33268;SDS011;19640;50.944;5.260;2022-10-16T04:31:55;4.38;;;1.10;;
33268;SDS011;19640;50.944;5.260;2022-10-16T04:34:20;2.75;;;1.20;;
33268;SDS011;19640;50.944;5.260;2022-10-16T04:36:47;4.10;;;1.42;;
33268;SDS011;19640;50.944;5.260;2022-10-16T04:39:14;2.38;;;1.45;;
33268;SDS011;19640;50.944;5.260;2022-10-16T04:41:40;2.80;;;1.27;;
33268;SDS011;19640;50.944;5.260;2022-10-16T04:44:06;4.43;;;1.42;;
33268;SDS011;19640;50.944;5.260;2022-10-16T04:46:31;1.48;;;1.27;;
33268;SDS011;19640;50.944;5.260;2022-10-16T04:48:57;1.70;;;1.15;;
33268;SDS011;19640;50.944;5.260;2022-10-16T04:51:22;2.00;;;1.10;;
33268;SDS011;19640;50.944;5.260;2022-10-16T04:53:48;1.83;;;1.38;;
33268;SDS011;19640;50.944;5.260;2022-10-16T04:56:14;2.75;;;1.13;;
33268;SDS011;19640;50.944;5.260;2022-10-16T04:58:40;2.05;;;1.10;;
33268;SDS011;19640;50.944;5.260;2022-10-16T05:01:06;1.92;;;1.10;;
33268;SDS011;19640;50.944;5.260;2022-10-16T05:03:31;1.67;;;1.40;;
33268;SDS011;19640;50.944;5.260;2022-10-16T05:05:57;2.70;;;1.42;;
33268;SDS011;19640;50.944;5.260;2022-10-16T05:08:22;3.50;;;1.35;;
33268;SDS011;19640;50.944;5.260;2022-10-16T05:10:48;1.73;;;1.40;;
33268;SDS011;19640;50.944;5.260;2022-10-16T05:13:14;2.38;;;1.30;;
33268;SDS011;19640;50.944;5.260;2022-10-16T05:15:39;3.60;;;1.50;;
33268;SDS011;19640;50.944;5.260;2022-10-16T05:18:05;3.78;;;1.20;;
33268;SDS011;19640;50.944;5.260;2022-10-16T05:20:31;2.00;;;1.30;;
33268;SDS011;19640;50.944;5.260;2022-10-16T05:22:57;4.68;;;1.60;;
33268;SDS011;19640;50.944;5.260;2022-10-16T05:25:22;6.75;;;1.30;;
33268;SDS011;19640;50.944;5.260;2022-10-16T05:27:48;5.00;;;1.40;;
33268;SDS011;19640;50.944;5.260;2022-10-16T05:30:14;1.75;;;1.45;;
33268;SDS011;19640;50.944;5.260;2022-10-16T05:32:41;2.40;;;1.40;;
33268;SDS011;19640;50.944;5.260;2022-10-16T05:35:11;2.28;;;1.55;;
33268;SDS011;19640;50.944;5.260;2022-10-16T05:37:36;2.03;;;1.65;;
33268;SDS011;19640;50.944;5.260;2022-10-16T05:40:02;2.58;;;1.65;;
33268;SDS011;19640;50.944;5.260;2022-10-16T05:42:29;3.90;;;1.88;;
33268;SDS011;19640;50.944;5.260;2022-10-16T05:44:55;3.15;;;2.00;;
33268;SDS011;19640;50.944;5.260;2022-10-16T05:47:21;4.72;;;1.80;;
33268;SDS011;19640;50.944;5.260;2022-10-16T05:49:47;2.00;;;1.80;;
33268;SDS011;19640;50.944;5.260;2022-10-16T05:52:12;2.40;;;1.70;;
33268;SDS011;19640;50.944;5.260;2022-10-16T05:54:38;5.72;;;1.92;;
33268;SDS011;19640;50.944;5.260;2022-10-16T05:57:03;3.83;;;2.03;;
33268;SDS011;19640;50.944;5.260;2022-10-16T05:59:30;5.32;;;2.13;;
33268;SDS011;19640;50.944;5.260;2022-10-16T06:01:56;2.45;;;2.13;;
33268;SDS011;19640;50.944;5.260;2022-10-16T06:04:22;4.97;;;2.03;;
33268;SDS011;19640;50.944;5.260;2022-10-16T06:06:48;3.70;;;1.83;;
33268;SDS011;19640;50.944;5.260;2022-10-16T06:09:13;3.55;;;2.22;;
33268;SDS011;19640;50.944;5.260;2022-10-16T06:11:39;3.25;;;2.10;;
33268;SDS011;19640;50.944;5.260;2022-10-16T06:14:05;3.03;;;2.20;;
33268;SDS011;19640;50.944;5.260;2022-10-16T06:16:36;3.45;;;2.10;;
33268;SDS011;19640;50.944;5.260;2022-10-16T06:19:03;4.00;;;1.88;;
33268;SDS011;19640;50.944;5.260;2022-10-16T06:21:31;5.78;;;1.88;;
33268;SDS011;19640;50.944;5.260;2022-10-16T06:23:57;3.13;;;2.00;;
33268;SDS011;19640;50.944;5.260;2022-10-16T06:26:27;2.47;;;1.80;;
33268;SDS011;19640;50.944;5.260;2022-10-16T06:28:54;3.17;;;1.70;;
33268;SDS011;19640;50.944;5.260;2022-10-16T06:31:21;3.47;;;1.70;;
33268;SDS011;19640;50.944;5.260;2022-10-16T06:33:50;2.83;;;2.08;;
33268;SDS011;19640;50.944;5.260;2022-10-16T06:36:17;3.63;;;2.15;;
33268;SDS011;19640;50.944;5.260;2022-10-16T06:38:43;2.58;;;1.83;;
33268;SDS011;19640;50.944;5.260;2022-10-16T06:41:11;2.50;;;1.92;;
33268;SDS011;19640;50.944;5.260;2022-10-16T06:43:38;2.92;;;1.92;;
33268;SDS011;19640;50.944;5.260;2022-10-16T06:46:04;3.47;;;1.88;;
33268;SDS011;19640;50.944;5.260;2022-10-16T06:48:34;2.05;;;1.90;;
33268;SDS011;19640;50.944;5.260;2022-10-16T06:51:01;1.88;;;1.67;;
33268;SDS011;19640;50.944;5.260;2022-10-16T06:53:30;3.67;;;1.92;;
33268;SDS011;19640;50.944;5.260;2022-10-16T06:55:58;3.40;;;1.70;;
33268;SDS011;19640;50.944;5.260;2022-10-16T06:58:35;1.83;;;1.50;;
33268;SDS011;19640;50.944;5.260;2022-10-16T07:01:01;2.35;;;1.80;;
33268;SDS011;19640;50.944;5.260;2022-10-16T07:03:27;2.90;;;1.75;;
33268;SDS011;19640;50.944;5.260;2022-10-16T07:05:52;1.92;;;1.42;;
33268;SDS011;19640;50.944;5.260;2022-10-16T07:08:18;3.95;;;1.75;;
33268;SDS011;19640;50.944;5.260;2022-10-16T07:10:44;2.53;;;1.38;;
33268;SDS011;19640;50.944;5.260;2022-10-16T07:13:09;5.68;;;1.60;;
33268;SDS011;19640;50.944;5.260;2022-10-16T07:15:38;2.53;;;1.60;;
33268;SDS011;19640;50.944;5.260;2022-10-16T07:18:03;2.22;;;1.70;;
33268;SDS011;19640;50.944;5.260;2022-10-16T07:20:29;4.38;;;1.52;;
33268;SDS011;19640;50.944;5.260;2022-10-16T07:22:54;3.65;;;1.60;;
33268;SDS011;19640;50.944;5.260;2022-10-16T07:25:20;1.88;;;1.35;;
33268;SDS011;19640;50.944;5.260;2022-10-16T07:27:46;5.53;;;2.05;;
33268;SDS011;19640;50.944;5.260;2022-10-16T07:30:11;3.72;;;1.70;;
33268;SDS011;19640;50.944;5.260;2022-10-16T07:32:37;2.97;;;1.60;;
33268;SDS011;19640;50.944;5.260;2022-10-16T07:35:03;3.85;;;1.27;;
33268;SDS011;19640;50.944;5.260;2022-10-16T07:37:29;4.65;;;1.33;;
33268;SDS011;19640;50.944;5.260;2022-10-16T07:39:54;3.15;;;1.70;;
33268;SDS011;19640;50.944;5.260;2022-10-16T07:42:20;3.03;;;1.30;;
33268;SDS011;19640;50.944;5.260;2022-10-16T07:44:46;2.28;;;1.48;;
33268;SDS011;19640;50.944;5.260;2022-10-16T07:47:11;2.75;;;1.20;;
33268;SDS011;19640;50.944;5.260;2022-10-16T07:49:37;1.67;;;1.50;;
33268;SDS011;19640;50.944;5.260;2022-10-16T07:52:02;1.48;;;1.20;;
33268;SDS011;19640;50.944;5.260;2022-10-16T07:54:28;4.00;;;1.23;;
33268;SDS011;19640;50.944;5.260;2022-10-16T07:56:54;4.30;;;1.45;;
33268;SDS011;19640;50.944;5.260;2022-10-16T07:59:20;2.50;;;1.30;;
33268;SDS011;19640;50.944;5.260;2022-10-16T08:01:45;4.43;;;1.45;;
33268;SDS011;19640;50.944;5.260;2022-10-16T08:04:11;3.42;;;1.23;;
33268;SDS011;19640;50.944;5.260;2022-10-16T08:06:37;2.63;;;1.70;;
33268;SDS011;19640;50.944;5.260;2022-10-16T08:09:04;4.75;;;1.48;;
33268;SDS011;19640;50.944;5.260;2022-10-16T08:11:31;2.50;;;1.67;;
33268;SDS011;19640;50.944;5.260;2022-10-16T08:13:57;4.20;;;2.22;;
33268;SDS011;19640;50.944;5.260;2022-10-16T08:16:23;1.63;;;1.13;;
33268;SDS011;19640;50.944;5.260;2022-10-16T08:18:49;1.65;;;1.10;;
33268;SDS011;19640;50.944;5.260;2022-10-16T08:21:16;2.25;;;1.23;;
33268;SDS011;19640;50.944;5.260;2022-10-16T08:23:43;2.08;;;1.00;;
33268;SDS011;19640;50.944;5.260;2022-10-16T08:26:09;1.77;;;1.23;;
33268;SDS011;19640;50.944;5.260;2022-10-16T08:28:35;2.40;;;1.30;;
33268;SDS011;19640;50.944;5.260;2022-10-16T08:31:12;2.70;;;1.42;;
33268;SDS011;19640;50.944;5.260;2022-10-16T08:33:40;4.20;;;1.30;;
33268;SDS011;19640;50.944;5.260;2022-10-16T08:36:08;4.22;;;1.27;;
33268;SDS011;19640;50.944;5.260;2022-10-16T08:38:35;5.55;;;1.23;;
33268;SDS011;19640;50.944;5.260;2022-10-16T08:41:17;2.95;;;1.00;;
33268;SDS011;19640;50.944;5.260;2022-10-16T08:49:33;2.35;;;1.00;;
33268;SDS011;19640;50.944;5.260;2022-10-16T08:51:59;2.15;;;1.13;;
33268;SDS011;19640;50.944;5.260;2022-10-16T08:57:13;2.05;;;1.02;;
33268;SDS011;19640;50.944;5.260;2022-10-16T08:59:42;2.88;;;1.10;;
33268;SDS011;19640;50.944;5.260;2022-10-16T09:02:18;8.15;;;1.23;;
33268;SDS011;19640;50.944;5.260;2022-10-16T09:10:57;2.45;;;1.00;;
33268;SDS011;19640;50.944;5.260;2022-10-16T09:13:31;19.73;;;2.03;;
33268;SDS011;19640;50.944;5.260;2022-10-16T09:19:00;10.35;;;1.35;;
33268;SDS011;19640;50.944;5.260;2022-10-16T09:21:37;2.85;;;1.05;;
33268;SDS011;19640;50.944;5.260;2022-10-16T09:24:13;3.40;;;0.77;;
33268;SDS011;19640;50.944;5.260;2022-10-16T09:26:41;2.22;;;0.70;;
33268;SDS011;19640;50.944;5.260;2022-10-16T09:29:11;2.80;;;0.90;;
33268;SDS011;19640;50.944;5.260;2022-10-16T09:31:39;7.40;;;1.30;;
33268;SDS011;19640;50.944;5.260;2022-10-16T09:34:06;4.40;;;1.17;;
33268;SDS011;19640;50.944;5.260;2022-10-16T09:36:49;2.80;;;0.80;;
33268;SDS011;19640;50.944;5.260;2022-10-16T09:39:15;2.70;;;0.82;;
33268;SDS011;19640;50.944;5.260;2022-10-16T09:41:41;1.90;;;0.77;;
33268;SDS011;19640;50.944;5.260;2022-10-16T09:44:17;5.93;;;1.33;;
33268;SDS011;19640;50.944;5.260;2022-10-16T09:47:05;3.95;;;1.17;;
33268;SDS011;19640;50.944;5.260;2022-10-16T09:49:39;1.83;;;0.70;;
33268;SDS011;19640;50.944;5.260;2022-10-16T09:52:19;2.50;;;0.70;;
33268;SDS011;19640;50.944;5.260;2022-10-16T09:54:55;3.22;;;1.10;;
33268;SDS011;19640;50.944;5.260;2022-10-16T09:57:25;2.20;;;0.80;;
33268;SDS011;19640;50.944;5.260;2022-10-16T09:59:52;5.07;;;1.20;;
33268;SDS011;19640;50.944;5.260;2022-10-16T10:02:23;4.05;;;0.93;;
33268;SDS011;19640;50.944;5.260;2022-10-16T10:04:53;3.92;;;1.38;;
33268;SDS011;19640;50.944;5.260;2022-10-16T10:07:26;2.08;;;0.80;;
33268;SDS011;19640;50.944;5.260;2022-10-16T10:09:58;3.15;;;0.75;;
33268;SDS011;19640;50.944;5.260;2022-10-16T10:12:24;2.97;;;0.85;;
33268;SDS011;19640;50.944;5.260;2022-10-16T10:14:52;2.70;;;1.10;;
33268;SDS011;19640;50.944;5.260;2022-10-16T10:17:21;2.15;;;0.77;;
33268;SDS011;19640;50.944;5.260;2022-10-16T10:19:54;2.03;;;0.65;;
33268;SDS011;19640;50.944;5.260;2022-10-16T10:22:38;2.03;;;0.73;;
33268;SDS011;19640;50.944;5.260;2022-10-16T10:32:56;7.28;;;0.90;;
33268;SDS011;19640;50.944;5.260;2022-10-16T10:48:19;5.28;;;0.80;;
33268;SDS011;19640;50.944;5.260;2022-10-16T10:50:25;2.53;;;0.82;;
33268;SDS011;19640;50.944;5.260;2022-10-16T10:56:22;2.90;;;0.60;;
33268;SDS011;19640;50.944;5.260;2022-10-16T11:01:44;1.85;;;0.70;;
33268;SDS011;19640;50.944;5.260;2022-10-16T11:04:24;6.78;;;0.80;;
33268;SDS011;19640;50.944;5.260;2022-10-16T11:07:48;2.08;;;0.50;;
33268;SDS011;19640;50.944;5.260;2022-10-16T11:10:21;2.22;;;0.70;;
33268;SDS011;19640;50.944;5.260;2022-10-16T11:12:52;5.43;;;0.60;;
33268;SDS011;19640;50.944;5.260;2022-10-16T11:15:25;1.73;;;0.43;;
33268;SDS011;19640;50.944;5.260;2022-10-16T11:18:02;2.47;;;0.50;;
33268;SDS011;19640;50.944;5.260;2022-10-16T11:20:39;2.50;;;0.73;;
33268;SDS011;19640;50.944;5.260;2022-10-16T11:23:16;3.13;;;0.65;;
33268;SDS011;19640;50.944;5.260;2022-10-16T11:25:50;2.42;;;0.70;;
33268;SDS011;19640;50.944;5.260;2022-10-16T11:30:53;2.00;;;0.60;;
33268;SDS011;19640;50.944;5.260;2022-10-16T11:33:29;3.95;;;0.60;;
33268;SDS011;19640;50.944;5.260;2022-10-16T11:36:22;1.73;;;0.50;;
33268;SDS011;19640;50.944;5.260;2022-10-16T11:38:57;2.97;;;0.75;;
33268;SDS011;19640;50.944;5.260;2022-10-16T11:41:28;5.65;;;0.60;;
33268;SDS011;19640;50.944;5.260;2022-10-16T11:49:47;5.28;;;0.88;;
33268;SDS011;19640;50.944;5.260;2022-10-16T11:55:20;3.22;;;0.80;;
33268;SDS011;19640;50.944;5.260;2022-10-16T11:57:52;4.90;;;0.80;;
33268;SDS011;19640;50.944;5.260;2022-10-16T12:00:24;2.20;;;0.70;;
33268;SDS011;19640;50.944;5.260;2022-10-16T12:03:14;1.88;;;0.68;;
33268;SDS011;19640;50.944;5.260;2022-10-16T12:08:55;1.20;;;0.43;;
33268;SDS011;19640;50.944;5.260;2022-10-16T12:16:58;2.17;;;0.55;;
33268;SDS011;19640;50.944;5.260;2022-10-16T12:19:27;3.05;;;0.50;;
33268;SDS011;19640;50.944;5.260;2022-10-16T12:21:55;1.77;;;0.52;;
33268;SDS011;19640;50.944;5.260;2022-10-16T12:24:38;2.33;;;0.70;;
33268;SDS011;19640;50.944;5.260;2022-10-16T12:27:20;1.90;;;0.50;;
33268;SDS011;19640;50.944;5.260;2022-10-16T12:29:57;3.05;;;0.68;;
33268;SDS011;19640;50.944;5.260;2022-10-16T12:32:27;1.55;;;0.47;;
33268;SDS011;19640;50.944;5.260;2022-10-16T12:34:53;1.77;;;0.32;;
33268;SDS011;19640;50.944;5.260;2022-10-16T12:37:20;2.53;;;0.50;;
33268;SDS011;19640;50.944;5.260;2022-10-16T12:39:52;4.22;;;0.50;;
33268;SDS011;19640;50.944;5.260;2022-10-16T12:44:51;1.33;;;0.40;;
33268;SDS011;19640;50.944;5.260;2022-10-16T12:50:28;4.30;;;0.50;;
33268;SDS011;19640;50.944;5.260;2022-10-16T12:52:57;0.65;;;0.30;;
33268;SDS011;19640;50.944;5.260;2022-10-16T12:55:24;1.10;;;0.35;;
33268;SDS011;19640;50.944;5.260;2022-10-16T13:06:09;0.82;;;0.22;;
33268;SDS011;19640;50.944;5.260;2022-10-16T13:08:48;1.63;;;0.30;;
33268;SDS011;19640;50.944;5.260;2022-10-16T13:27:28;0.90;;;0.55;;
33268;SDS011;19640;50.944;5.260;2022-10-16T13:32:47;1.23;;;0.40;;
33268;SDS011;19640;50.944;5.260;2022-10-16T13:35:20;0.90;;;0.40;;
33268;SDS011;19640;50.944;5.260;2022-10-16T13:37:48;0.82;;;0.30;;
33268;SDS011;19640;50.944;5.260;2022-10-16T13:40:21;2.05;;;0.63;;
33268;SDS011;19640;50.944;5.260;2022-10-16T13:42:49;1.08;;;0.50;;
33268;SDS011;19640;50.944;5.260;2022-10-16T13:45:23;2.40;;;0.60;;
33268;SDS011;19640;50.944;5.260;2022-10-16T13:48:06;1.05;;;0.47;;
33268;SDS011;19640;50.944;5.260;2022-10-16T13:50:37;1.30;;;0.40;;
33268;SDS011;19640;50.944;5.260;2022-10-16T13:53:06;2.00;;;0.45;;
33268;SDS011;19640;50.944;5.260;2022-10-16T13:55:32;2.65;;;0.50;;
33268;SDS011;19640;50.944;5.260;2022-10-16T13:58:05;3.28;;;0.63;;
33268;SDS011;19640;50.944;5.260;2022-10-16T14:00:37;1.45;;;0.85;;
33268;SDS011;19640;50.944;5.260;2022-10-16T14:03:15;1.42;;;0.40;;
33268;SDS011;19640;50.944;5.260;2022-10-16T14:05:45;1.88;;;0.30;;
33268;SDS011;19640;50.944;5.260;2022-10-16T14:08:14;1.50;;;0.30;;
33268;SDS011;19640;50.944;5.260;2022-10-16T14:10:40;1.38;;;0.40;;
33268;SDS011;19640;50.944;5.260;2022-10-16T14:13:06;4.45;;;0.40;;
33268;SDS011;19640;50.944;5.260;2022-10-16T14:15:34;1.02;;;0.30;;
33268;SDS011;19640;50.944;5.260;2022-10-16T14:18:01;1.15;;;0.50;;
33268;SDS011;19640;50.944;5.260;2022-10-16T14:20:29;2.58;;;0.45;;
33268;SDS011;19640;50.944;5.260;2022-10-16T14:22:58;1.33;;;0.40;;
33268;SDS011;19640;50.944;5.260;2022-10-16T14:25:27;0.88;;;0.30;;
33268;SDS011;19640;50.944;5.260;2022-10-16T14:28:17;2.78;;;0.50;;
33268;SDS011;19640;50.944;5.260;2022-10-16T14:30:55;2.80;;;0.70;;
33268;SDS011;19640;50.944;5.260;2022-10-16T14:33:31;0.35;;;0.20;;
33268;SDS011;19640;50.944;5.260;2022-10-16T14:36:05;2.70;;;0.45;;
33268;SDS011;19640;50.944;5.260;2022-10-16T14:38:38;2.03;;;0.40;;
33268;SDS011;19640;50.944;5.260;2022-10-16T14:41:05;2.40;;;0.40;;
33268;SDS011;19640;50.944;5.260;2022-10-16T14:43:37;2.03;;;0.35;;
33268;SDS011;19640;50.944;5.260;2022-10-16T14:46:09;1.10;;;0.30;;
33268;SDS011;19640;50.944;5.260;2022-10-16T14:48:42;1.98;;;0.70;;
33268;SDS011;19640;50.944;5.260;2022-10-16T14:51:18;1.45;;;0.40;;
33268;SDS011;19640;50.944;5.260;2022-10-16T14:53:45;0.68;;;0.40;;
33268;SDS011;19640;50.944;5.260;2022-10-16T14:56:16;3.22;;;0.50;;
33268;SDS011;19640;50.944;5.260;2022-10-16T14:58:47;1.70;;;0.40;;
33268;SDS011;19640;50.944;5.260;2022-10-16T15:01:14;2.25;;;0.50;;
33268;SDS011;19640;50.944;5.260;2022-10-16T15:03:40;1.98;;;0.40;;
33268;SDS011;19640;50.944;5.260;2022-10-16T15:06:12;1.02;;;0.32;;
33268;SDS011;19640;50.944;5.260;2022-10-16T15:08:41;2.47;;;0.65;;
33268;SDS011;19640;50.944;5.260;2022-10-16T15:11:14;7.60;;;0.55;;
33268;SDS011;19640;50.944;5.260;2022-10-16T15:13:42;1.25;;;0.50;;
33268;SDS011;19640;50.944;5.260;2022-10-16T15:16:11;5.10;;;0.68;;
33268;SDS011;19640;50.944;5.260;2022-10-16T15:18:38;3.53;;;0.60;;
33268;SDS011;19640;50.944;5.260;2022-10-16T15:21:04;2.03;;;0.50;;
33268;SDS011;19640;50.944;5.260;2022-10-16T15:23:30;2.30;;;0.47;;
33268;SDS011;19640;50.944;5.260;2022-10-16T15:25:55;2.53;;;0.60;;
33268;SDS011;19640;50.944;5.260;2022-10-16T15:28:22;1.08;;;0.32;;
33268;SDS011;19640;50.944;5.260;2022-10-16T15:30:49;1.23;;;0.38;;
33268;SDS011;19640;50.944;5.260;2022-10-16T15:33:18;1.27;;;0.50;;
33268;SDS011;19640;50.944;5.260;2022-10-16T15:35:48;0.98;;;0.43;;
33268;SDS011;19640;50.944;5.260;2022-10-16T15:38:16;1.52;;;0.28;;
33268;SDS011;19640;50.944;5.260;2022-10-16T15:40:43;3.80;;;0.52;;
33268;SDS011;19640;50.944;5.260;2022-10-16T15:43:10;2.33;;;0.35;;
33268;SDS011;19640;50.944;5.260;2022-10-16T15:45:36;2.40;;;0.50;;
33268;SDS011;19640;50.944;5.260;2022-10-16T15:48:02;4.22;;;0.30;;
33268;SDS011;19640;50.944;5.260;2022-10-16T15:50:28;0.90;;;0.35;;
33268;SDS011;19640;50.944;5.260;2022-10-16T15:52:55;6.03;;;1.00;;
33268;SDS011;19640;50.944;5.260;2022-10-16T15:55:21;0.70;;;0.50;;
33268;SDS011;19640;50.944;5.260;2022-10-16T15:57:47;2.90;;;0.80;;
33268;SDS011;19640;50.944;5.260;2022-10-16T16:00:17;1.75;;;0.50;;
33268;SDS011;19640;50.944;5.260;2022-10-16T16:02:50;1.50;;;0.50;;
33268;SDS011;19640;50.944;5.260;2022-10-16T16:05:17;1.95;;;0.50;;
33268;SDS011;19640;50.944;5.260;2022-10-16T16:07:44;1.90;;;0.50;;
33268;SDS011;19640;50.944;5.260;2022-10-16T16:10:09;1.80;;;0.50;;
33268;SDS011;19640;50.944;5.260;2022-10-16T16:12:36;4.65;;;0.70;;
33268;SDS011;19640;50.944;5.260;2022-10-16T16:15:06;1.70;;;0.60;;
33268;SDS011;19640;50.944;5.260;2022-10-16T16:17:34;2.03;;;0.63;;
33268;SDS011;19640;50.944;5.260;2022-10-16T16:20:00;3.17;;;0.60;;
33268;SDS011;19640;50.944;5.260;2022-10-16T16:22:27;1.67;;;0.50;;
33268;SDS011;19640;50.944;5.260;2022-10-16T16:24:52;3.15;;;0.60;;
33268;SDS011;19640;50.944;5.260;2022-10-16T16:27:18;1.70;;;0.50;;
33268;SDS011;19640;50.944;5.260;2022-10-16T16:29:44;3.40;;;0.68;;
33268;SDS011;19640;50.944;5.260;2022-10-16T16:32:11;3.15;;;0.73;;
33268;SDS011;19640;50.944;5.260;2022-10-16T16:34:36;4.25;;;0.77;;
33268;SDS011;19640;50.944;5.260;2022-10-16T16:37:02;2.10;;;0.70;;
33268;SDS011;19640;50.944;5.260;2022-10-16T16:39:28;2.45;;;0.80;;
33268;SDS011;19640;50.944;5.260;2022-10-16T16:41:55;3.40;;;0.65;;
33268;SDS011;19640;50.944;5.260;2022-10-16T16:44:23;3.05;;;0.70;;
33268;SDS011;19640;50.944;5.260;2022-10-16T16:46:49;2.33;;;0.80;;
33268;SDS011;19640;50.944;5.260;2022-10-16T16:49:15;2.92;;;1.08;;
33268;SDS011;19640;50.944;5.260;2022-10-16T16:51:43;5.10;;;1.65;;
33268;SDS011;19640;50.944;5.260;2022-10-16T16:54:09;4.15;;;1.20;;
33268;SDS011;19640;50.944;5.260;2022-10-16T16:56:35;5.13;;;1.10;;